メインページ
METAR-TAF:

METAR-TAF

空港 :

ミンスク第2空港

ミンスク, ベラルーシ

緯度: 53-56N, 経度: 027-38E, 海抜: 234m

現時点の気象観測

当レポートは26分前の14:00(UTC)に作成
南/南西の風 6kt、東/南東から西/南西の間で変化する
気温 26°C
湿度 54%
気圧 1013 hPa
視程10km以上
1,500メートル以下は雲なし、積乱雲なし

METAR: UMMS 201400Z 21003MPS 110V240 CAVOK 26/16 Q1013 R13/D NOSIG

時間: 17:26 (14:26 UTC)

予報

当レポートは3時間21分前の11:05(UTC)に作成
予報は20日の 12時(UTC)から 21日の 12時(UTC)まで有効
南/南西の風 10kt、最大19ktの突風を伴う
視程10km以上
高度2500ftの千切れ雲あり
20日の 12時(UTC)から 20日の 17時(UTC)まで一時的に
南西の風 16kt、最大25ktの突風を伴う
視程: 2100m
高度700ftの雲は散在している
高度2000ftの千切れ雲あり, 積乱雲.
激しい雷雨, 小雨
20日の 17時(UTC)から 20日の 18時(UTC)まで徐々に
西/南西の風 12kt
高度1500ftの千切れ雲あり
20日の 18時(UTC)から 21日の 08時(UTC)まで一時的に
変向風 27kt
視程: 1200m
高度300ftの雲は散在している
高度2000ftの千切れ雲あり, 積乱雲.
激しい雷雨, 雨, スコール
21日の 08時(UTC)から 21日の 12時(UTC)まで一時的に
西の風 16kt、最大25ktの突風を伴う
視程: 2100m
高度700ftの千切れ雲あり
高度2000ftの千切れ雲あり, 積乱雲.
弱いにわか雨

TAF: UMMS 201105Z 2012/2112 21005G10MPS 9999 BKN025 TEMPO 2012/2017 22008G13MPS 2100 -TSRA SCT007 BKN020CB BECMG 2017/2018 24006MPS BKN015 TEMPO 2018/2108 VRB14MPS 1200 TSRA SQ SCT003 BKN020CB TEMPO 2108/2112 27008G13MPS 2100 -SHRA BKN007 BKN020CB

4,000以上の空港の気象観測と天気予報(METAR報とTAF報)

利用可能な観測所は地図上に黄色い丸と赤い丸で示す。

丸の上にカーソルを重ねると観測所名を参照できる。

次にクリックすると気象観測と天気予報を参照できる。

マップの切り替え:黒色「×」印の緑ボタンをクリックして拡大、「-」印の緑ボタンをクリックして縮小、緑色の三角印をクリックして隣りの地図に切り替え


METAR-TAF: